Hlavní strana
METAR-TAF:

METAR-TAF

Letiště :

Coles County Memorial Airport

Mattoon / Charleston, Illinois, Spojené státy americké

zeměpisná šířka: 39-28-41N, zeměpisná délka: 088-16-45W, výška: 220 m

Aktuální stav počasí

Zpráva byla vytvořena před 37 minutami, v 23:53 UTC
Severoseverovýchodní vítr 25 kt s nárazy do 36 kt
Teplota 8°C
Vlhkost vzduchu 76%
Tlak 1006 hPa
Viditelnost: 16.1 km
Zataženo ve výšce 3400 ft

METAR: KMTO 192353Z AUTO 02025G36KT 10SM OVC034 08/04 A2972 RMK AO2 PK WND 01044/2254 SLP067 T00830039 53005 $

Čas: 19:30 (00:30 UTC)


TAF: chybějící

Stav a předpovědi počasí z více než 4 000 letišť (zprávy METAR a TAF).

Červené a žluté tečky na mapě představují dostupné meteorologické stanice.

Když kurzor umístíte na tečku, zobrazí se název stanice.

Pak kliknutím zobrazíte stav a předpověď počasí.

Chcete-li změnit mapu, kliknutím na zelené tlačítko se znaménkem +mapu přiblížíte, kliknutím na zelené tlačítko se znaménkem – mapu oddálíte a kliknutím na zelené šipky přejdete na sousední mapy.


METAR-TAF: